Time;durP1;ratioP1;P1;durP2;ratioP2;P2;SDS_P1;SDS_P2;PMS_P1;PMS_P2;Temp;Humidity;BMP_temperature;BMP_pressure;BME280_temperature;BME280_humidity;BME280_pressure;Samples;Min_cycle;Max_cycle;Signal;HPM_P1;HPM_P2
2022/08/23 15:42:00;;;;;;;1.20;1.10;;;27.30;71.90;;;;;;4939809;29;20965;-86
2022/08/23 15:44:27;;;;;;;1.40;1.30;;;27.30;72.00;;;;;;4937915;29;20538;-84
2022/08/23 15:46:54;;;;;;;1.60;1.50;;;27.30;71.80;;;;;;4937616;29;20483;-84
2022/08/23 15:49:23;;;;;;;3.63;1.20;;;27.40;71.80;;;;;;4937864;29;20439;-84
2022/08/23 15:51:49;;;;;;;1.40;1.30;;;27.40;71.80;;;;;;4937738;29;20538;-84
2022/08/23 15:54:16;;;;;;;1.47;1.37;;;27.40;71.70;;;;;;4937688;29;20948;-84
2022/08/23 15:56:47;;;;;;;1.57;1.47;;;27.40;71.60;;;;;;4937512;29;20447;-84
2022/08/23 15:59:17;;;;;;;1.70;1.60;;;27.40;71.60;;;;;;4938192;29;20452;-84
2022/08/23 16:01:44;;;;;;;1.43;1.33;;;27.40;71.60;;;;;;4937766;29;20478;-84
2022/08/23 16:04:11;;;;;;;1.50;1.40;;;27.40;71.50;;;;;;4937276;29;20451;-84
2022/08/23 16:06:39;;;;;;;1.57;1.47;;;27.40;71.50;;;;;;4937536;29;20897;-84
2022/08/23 16:09:11;;;;;;;1.60;1.50;;;27.40;71.50;;;;;;4937404;29;20446;-85
2022/08/23 16:11:38;;;;;;;1.60;1.50;;;27.50;71.60;;;;;;4937306;29;20438;-86
2022/08/23 16:14:05;;;;;;;1.50;1.40;;;27.50;71.60;;;;;;4937074;29;20493;-84
2022/08/23 16:16:37;;;;;;;1.30;1.20;;;27.50;71.50;;;;;;4937304;29;20451;-84
2022/08/23 16:19:04;;;;;;;1.50;1.40;;;27.50;71.50;;;;;;4937502;29;20440;-85
2022/08/23 16:21:32;;;;;;;1.30;1.20;;;27.50;71.50;;;;;;4947747;29;20447;-85
2022/08/23 16:23:59;;;;;;;1.50;1.40;;;27.50;71.50;;;;;;4945060;28;20943;-84
2022/08/23 16:26:29;;;;;;;1.23;1.13;;;27.50;71.60;;;;;;4945648;28;20539;-85
2022/08/23 16:29:00;;;;;;;1.33;1.23;;;27.50;71.60;;;;;;4937256;29;20453;-86
2022/08/23 16:31:28;;;;;;;1.67;1.57;;;27.50;71.60;;;;;;4937248;29;20446;-84
2022/08/23 16:33:56;;;;;;;1.60;1.50;;;27.50;71.60;;;;;;4937004;29;20597;-86
2022/08/23 16:36:23;;;;;;;1.50;1.40;;;27.50;71.60;;;;;;4936888;29;21014;-87
2022/08/23 16:38:52;;;;;;;1.50;1.40;;;27.50;71.60;;;;;;4936989;29;21006;-84
2022/08/23 16:41:19;;;;;;;1.40;1.30;;;27.50;71.70;;;;;;4936814;29;20846;-84
2022/08/23 16:43:46;;;;;;;1.70;1.60;;;27.50;71.70;;;;;;4936771;29;20447;-84
2022/08/23 16:46:14;;;;;;;1.77;1.67;;;27.50;71.70;;;;;;4937366;29;20521;-85
2022/08/23 16:48:41;;;;;;;1.70;1.60;;;27.60;71.70;;;;;;4937004;29;20859;-83
2022/08/23 16:51:09;;;;;;;1.60;1.50;;;27.50;71.60;;;;;;4936865;29;20479;-84
2022/08/23 16:53:37;;;;;;;1.60;1.50;;;27.50;71.60;;;;;;4936878;29;20479;-85
2022/08/23 16:56:04;;;;;;;1.60;1.50;;;27.50;71.50;;;;;;4936614;29;20450;-89
2022/08/23 16:58:32;;;;;;;2.20;1.20;;;27.50;71.60;;;;;;4936749;29;20866;-88
2022/08/23 17:00:59;;;;;;;1.40;1.30;;;27.50;71.50;;;;;;4936458;29;20534;-85
2022/08/23 17:03:25;;;;;;;1.50;1.33;;;27.50;71.50;;;;;;4936631;29;20459;-89
2022/08/23 17:05:52;;;;;;;1.50;1.40;;;27.50;71.50;;;;;;4936558;29;20530;-84
2022/08/23 17:08:21;;;;;;;1.30;1.20;;;27.50;71.50;;;;;;4936521;29;20570;-85
2022/08/23 17:10:47;;;;;;;1.30;1.20;;;27.50;71.60;;;;;;4936585;29;20467;-84
2022/08/23 17:13:16;;;;;;;1.37;1.27;;;27.50;72.30;;;;;;4936304;29;20554;-84
2022/08/23 17:15:42;;;;;;;1.30;1.20;;;27.50;71.50;;;;;;4936365;29;20459;-84
2022/08/23 17:18:09;;;;;;;1.40;1.30;;;27.50;71.50;;;;;;4936642;29;20847;-84
2022/08/23 17:20:38;;;;;;;1.57;1.47;;;27.50;71.50;;;;;;4936922;29;20454;-84
2022/08/23 17:23:05;;;;;;;2.57;1.47;;;27.50;71.60;;;;;;4936522;29;20769;-86
2022/08/23 17:25:33;;;;;;;1.30;1.20;;;27.50;71.60;;;;;;4936150;29;20447;-83
2022/08/23 17:28:00;;;;;;;1.20;1.10;;;27.50;71.60;;;;;;4936199;29;20443;-83
2022/08/23 17:30:29;;;;;;;1.40;1.30;;;27.50;71.70;;;;;;4936062;29;20439;-84
2022/08/23 17:32:56;;;;;;;1.47;1.37;;;27.50;71.70;;;;;;4936189;29;20450;-83
2022/08/23 17:35:26;;;;;;;1.93;1.60;;;27.50;71.70;;;;;;4937449;29;20447;-84
2022/08/23 17:37:53;;;;;;;2.00;1.83;;;27.50;71.70;;;;;;4940005;29;20453;-84
2022/08/23 17:40:23;;;;;;;2.53;1.40;;;27.50;71.70;;;;;;4939915;29;20475;-89
2022/08/23 17:42:51;;;;;;;1.60;1.50;;;27.50;71.60;;;;;;4940004;29;20447;-84
2022/08/23 17:45:19;;;;;;;1.63;1.53;;;27.50;71.70;;;;;;4939886;29;20462;-84
2022/08/23 17:47:46;;;;;;;3.20;1.90;;;27.50;71.70;;;;;;4939785;29;20939;-89
2022/08/23 17:50:15;;;;;;;1.53;1.43;;;27.50;71.70;;;;;;4939707;29;20451;-84
2022/08/23 17:52:41;;;;;;;1.73;1.30;;;27.50;71.60;;;;;;4939542;29;20799;-84
2022/08/23 17:55:09;;;;;;;3.10;1.40;;;27.50;71.70;;;;;;4938520;29;20574;-84
2022/08/23 17:57:37;;;;;;;2.10;1.90;;;27.50;71.70;;;;;;4938426;29;20951;-84
2022/08/23 18:00:07;;;;;;;2.80;1.40;;;27.50;71.70;;;;;;4938688;29;20529;-84
2022/08/23 18:02:34;;;;;;;1.83;1.40;;;27.50;71.70;;;;;;4938922;29;20457;-84
2022/08/23 18:05:00;;;;;;;1.80;1.70;;;27.50;71.70;;;;;;4938658;29;20455;-84
2022/08/23 18:07:27;;;;;;;1.80;1.70;;;27.50;71.70;;;;;;4938500;29;20452;-84
2022/08/23 18:09:54;;;;;;;1.70;1.60;;;27.50;71.70;;;;;;4939484;29;20435;-84
2022/08/23 18:12:22;;;;;;;1.33;1.10;;;27.50;71.70;;;;;;4939436;29;20452;-84
2022/08/23 18:14:49;;;;;;;1.87;1.70;;;27.50;71.70;;;;;;4939542;29;20486;-89
2022/08/23 18:17:19;;;;;;;1.77;1.67;;;27.50;71.80;;;;;;4939094;29;20459;-88
